Churchill, Canada
Current Conditions -  °F | °C
As of 2:00 AM on Thursday 27 Nov 2014 (Local Time) from CYYQ Reporting Station
Few Clouds Few Clouds  
Wind Chill: -28°   Ceiling: Unl
Heat Index: -6°   Visibility: 15mi
Dew Point: -11°   Wind: 17mph
Humidity: 77%   Direction: 270°W
Pressure: 30.09"   Gusts: 23mph
Location:  58.75°N, 94.06°W
Report Text: CYYQ 270800Z 27015G20KT 15SM FEW130 M21/M24 A3009 RMK AC2 SLP194
Loading
Personal Weather Stations






























Interactive Weather Map New forecast layout! Learn more

10-Day Weather Forecast

Advertisements
Track Severe Weather on mobile